AZU2705 SBBE-SBKP
Flight info
| Callsign | AZU2705 |
|---|---|
| Flight time | 3h 11m |
| Altitude | 37000 |
| Route | ANGIM UZ37 UTMOD/N0441F390 UZ37 PULUV UZ2 ENTIT |
| Aircraft | A20N/M-SDE2E3FGHIRWXY/LB1 |
Departure
| Time | 2026-04-29 23:41 |
|---|---|
| Airport | Val de Cans/Júlio Cezar Ribeiro International Airport (SBBE) |
Arrival
| Time | 2026-04-30 02:53 |
|---|---|
| Airport | Viracopos International Airport (SBKP) |
| Time | Latitude | Longitude | Altitude | Speed | Heading |
|---|---|---|---|---|---|
| 2026-04-29 23:13 | -1.38719 | -48.48074 | 53 ft | 0 kts | 179° |
| 2026-04-29 23:33 | -1.38708 | -48.48072 | 49 ft | 3 kts | 226° |
| 2026-04-29 23:34 | -1.38702 | -48.48062 | 46 ft | 0 kts | 269° |
| 2026-04-29 23:37 | -1.38702 | -48.48066 | 49 ft | 1 kts | 269° |
| 2026-04-29 23:37 | -1.38703 | -48.48078 | 47 ft | 2 kts | 269° |
| 2026-04-29 23:37 | -1.38698 | -48.48095 | 52 ft | 12 kts | 292° |
| 2026-04-29 23:37 | -1.38674 | -48.48187 | 51 ft | 14 kts | 272° |
| 2026-04-29 23:38 | -1.38718 | -48.48266 | 49 ft | 13 kts | 225° |
| 2026-04-29 23:38 | -1.38782 | -48.48329 | 49 ft | 12 kts | 225° |
| 2026-04-29 23:38 | -1.38807 | -48.48360 | 47 ft | 0 kts | 242° |
| 2026-04-29 23:40 | -1.38809 | -48.48365 | 48 ft | 5 kts | 248° |
| 2026-04-29 23:40 | -1.38814 | -48.48451 | 48 ft | 14 kts | 288° |
| 2026-04-29 23:40 | -1.38757 | -48.48448 | 47 ft | 0 kts | 44° |
| 2026-04-29 23:41 | -1.38683 | -48.48377 | 47 ft | 45 kts | 45° |
| 2026-04-29 23:41 | -1.38306 | -48.47991 | 52 ft | 108 kts | 45° |
| 2026-04-29 23:41 | -1.37644 | -48.47334 | 87 ft | 154 kts | 44° |
| 2026-04-29 23:41 | -1.36871 | -48.46629 | 701 ft | 145 kts | 45° |
| 2026-04-29 23:42 | -1.36156 | -48.45905 | 1244 ft | 150 kts | 48° |
| 2026-04-29 23:42 | -1.35588 | -48.44968 | 1508 ft | 172 kts | 81° |
| 2026-04-29 23:42 | -1.35945 | -48.43767 | 1665 ft | 202 kts | 128° |
| 2026-04-29 23:42 | -1.37292 | -48.43026 | 1860 ft | 245 kts | 166° |
| 2026-04-29 23:43 | -1.39045 | -48.42810 | 2520 ft | 259 kts | 173° |
| 2026-04-29 23:43 | -1.40851 | -48.42640 | 3312 ft | 263 kts | 172° |
| 2026-04-29 23:43 | -1.42680 | -48.42427 | 3803 ft | 265 kts | 171° |
| 2026-04-29 23:43 | -1.44501 | -48.42177 | 3992 ft | 264 kts | 170° |
| 2026-04-29 23:44 | -1.46293 | -48.41906 | 4015 ft | 264 kts | 169° |
| 2026-04-29 23:44 | -1.48133 | -48.41614 | 4009 ft | 264 kts | 169° |
| 2026-04-29 23:44 | -1.49924 | -48.41323 | 4010 ft | 264 kts | 169° |
| 2026-04-29 23:44 | -1.51740 | -48.41024 | 4015 ft | 265 kts | 169° |
| 2026-04-29 23:45 | -1.53558 | -48.40722 | 4006 ft | 265 kts | 168° |
| 2026-04-29 23:45 | -1.55399 | -48.40416 | 4013 ft | 265 kts | 169° |
| 2026-04-29 23:45 | -1.57215 | -48.40113 | 4015 ft | 265 kts | 168° |
| 2026-04-29 23:45 | -1.59006 | -48.39813 | 4009 ft | 264 kts | 168° |
| 2026-04-29 23:46 | -1.60821 | -48.39510 | 4014 ft | 264 kts | 168° |
| 2026-04-29 23:46 | -1.62632 | -48.39203 | 4020 ft | 264 kts | 168° |
| 2026-04-29 23:46 | -1.64443 | -48.38889 | 4019 ft | 264 kts | 168° |
| 2026-04-29 23:46 | -1.66255 | -48.38574 | 4183 ft | 266 kts | 168° |
| 2026-04-29 23:47 | -1.68087 | -48.38255 | 4933 ft | 267 kts | 168° |
| 2026-04-29 23:47 | -1.69903 | -48.37939 | 5894 ft | 265 kts | 168° |
| 2026-04-29 23:47 | -1.71724 | -48.37623 | 6727 ft | 267 kts | 168° |
| 2026-04-29 23:47 | -1.73566 | -48.37301 | 7470 ft | 272 kts | 168° |
| 2026-04-29 23:48 | -1.75447 | -48.36973 | 8215 ft | 277 kts | 168° |
| 2026-04-29 23:48 | -1.77360 | -48.36640 | 8984 ft | 281 kts | 168° |
| 2026-04-29 23:48 | -1.79303 | -48.36302 | 9747 ft | 286 kts | 168° |
| 2026-04-29 23:48 | -1.81290 | -48.35938 | 10267 ft | 298 kts | 167° |
| 2026-04-29 23:49 | -1.83394 | -48.35536 | 10543 ft | 318 kts | 167° |
| 2026-04-29 23:49 | -1.85612 | -48.35110 | 10986 ft | 329 kts | 167° |
| 2026-04-29 23:49 | -1.87879 | -48.34677 | 11600 ft | 334 kts | 167° |
| 2026-04-29 23:49 | -1.90178 | -48.34237 | 12243 ft | 338 kts | 167° |
| 2026-04-29 23:50 | -1.92500 | -48.33793 | 12912 ft | 342 kts | 167° |
| 2026-04-29 23:50 | -1.94847 | -48.33344 | 13588 ft | 345 kts | 167° |
| 2026-04-29 23:50 | -1.99622 | -48.32453 | 14756 ft | 353 kts | 167° |
| 2026-04-29 23:51 | -2.02057 | -48.32009 | 15349 ft | 357 kts | 167° |
| 2026-04-29 23:51 | -2.04529 | -48.31616 | 15956 ft | 362 kts | 169° |
| 2026-04-29 23:51 | -2.07035 | -48.31282 | 16560 ft | 366 kts | 169° |
| 2026-04-29 23:51 | -2.09572 | -48.30957 | 17156 ft | 369 kts | 170° |
| 2026-04-29 23:52 | -2.12136 | -48.30630 | 17721 ft | 373 kts | 170° |
| 2026-04-29 23:52 | -2.14723 | -48.30298 | 18262 ft | 377 kts | 170° |
| 2026-04-29 23:52 | -2.17338 | -48.29963 | 18724 ft | 380 kts | 169° |
| 2026-04-29 23:52 | -2.19970 | -48.29624 | 19188 ft | 383 kts | 169° |
| 2026-04-29 23:53 | -2.22626 | -48.29282 | 19655 ft | 386 kts | 169° |
| 2026-04-29 23:53 | -2.25302 | -48.28937 | 20109 ft | 389 kts | 169° |
| 2026-04-29 23:53 | -2.27996 | -48.28590 | 20563 ft | 392 kts | 169° |
| 2026-04-29 23:53 | -2.30674 | -48.28245 | 21030 ft | 395 kts | 169° |
| 2026-04-29 23:54 | -2.33407 | -48.27892 | 21499 ft | 397 kts | 169° |
| 2026-04-29 23:54 | -2.36159 | -48.27538 | 21964 ft | 400 kts | 169° |
| 2026-04-29 23:54 | -2.38932 | -48.27180 | 22436 ft | 403 kts | 169° |
| 2026-04-29 23:54 | -2.41725 | -48.26820 | 22889 ft | 406 kts | 169° |
| 2026-04-29 23:55 | -2.44538 | -48.26457 | 23355 ft | 409 kts | 169° |
| 2026-04-29 23:55 | -2.47373 | -48.26091 | 23752 ft | 412 kts | 169° |
| 2026-04-29 23:55 | -2.50225 | -48.25724 | 24146 ft | 415 kts | 169° |
| 2026-04-29 23:55 | -2.53096 | -48.25354 | 24563 ft | 417 kts | 169° |
| 2026-04-29 23:56 | -2.55980 | -48.24982 | 24976 ft | 419 kts | 170° |
| 2026-04-29 23:56 | -2.58880 | -48.24608 | 25395 ft | 421 kts | 170° |
| 2026-04-29 23:56 | -2.61796 | -48.24232 | 25793 ft | 423 kts | 170° |
| 2026-04-29 23:56 | -2.64725 | -48.23854 | 26190 ft | 426 kts | 170° |
| 2026-04-29 23:57 | -2.67671 | -48.23474 | 26576 ft | 428 kts | 170° |
| 2026-04-29 23:57 | -2.70632 | -48.23092 | 26948 ft | 430 kts | 170° |
| 2026-04-29 23:57 | -2.73610 | -48.22708 | 27320 ft | 433 kts | 170° |
| 2026-04-29 23:57 | -2.76603 | -48.22322 | 27683 ft | 435 kts | 170° |
| 2026-04-29 23:58 | -2.79613 | -48.21933 | 28046 ft | 437 kts | 170° |
| 2026-04-29 23:58 | -2.82633 | -48.21544 | 28400 ft | 439 kts | 170° |
| 2026-04-29 23:58 | -2.85673 | -48.21151 | 28754 ft | 441 kts | 170° |
| 2026-04-29 23:58 | -2.88727 | -48.20752 | 29104 ft | 443 kts | 170° |
| 2026-04-29 23:59 | -2.91785 | -48.20335 | 29451 ft | 445 kts | 169° |
| 2026-04-29 23:59 | -2.94865 | -48.19912 | 29780 ft | 448 kts | 170° |
| 2026-04-29 23:59 | -2.97957 | -48.19487 | 30083 ft | 450 kts | 170° |
| 2026-04-29 23:59 | -3.01067 | -48.19060 | 30329 ft | 453 kts | 170° |
| 2026-04-30 00:00 | -3.04200 | -48.18629 | 30571 ft | 455 kts | 170° |
| 2026-04-30 00:00 | -3.07345 | -48.18197 | 30822 ft | 458 kts | 170° |
| 2026-04-30 00:00 | -3.10505 | -48.17764 | 31091 ft | 460 kts | 170° |
| 2026-04-30 00:00 | -3.13675 | -48.17329 | 31438 ft | 459 kts | 171° |
| 2026-04-30 00:01 | -3.16840 | -48.16895 | 31779 ft | 459 kts | 171° |
| 2026-04-30 00:01 | -3.20009 | -48.16460 | 32108 ft | 459 kts | 171° |
| 2026-04-30 00:01 | -3.23174 | -48.16025 | 32442 ft | 460 kts | 171° |
| 2026-04-30 00:01 | -3.26344 | -48.15590 | 32755 ft | 460 kts | 171° |
| 2026-04-30 00:02 | -3.29511 | -48.15155 | 33072 ft | 460 kts | 171° |
| 2026-04-30 00:02 | -3.32684 | -48.14720 | 33383 ft | 460 kts | 172° |
| 2026-04-30 00:02 | -3.35856 | -48.14284 | 33691 ft | 460 kts | 172° |
| 2026-04-30 00:02 | -3.39026 | -48.13849 | 33981 ft | 460 kts | 172° |
| 2026-04-30 00:03 | -3.42202 | -48.13413 | 34263 ft | 460 kts | 172° |
| 2026-04-30 00:03 | -3.45367 | -48.12978 | 34573 ft | 458 kts | 172° |
| 2026-04-30 00:03 | -3.48520 | -48.12546 | 34867 ft | 457 kts | 173° |
| 2026-04-30 00:03 | -3.51686 | -48.12245 | 35144 ft | 457 kts | 176° |
| 2026-04-30 00:04 | -3.54855 | -48.12056 | 35420 ft | 456 kts | 178° |
| 2026-04-30 00:04 | -3.58021 | -48.11920 | 35686 ft | 455 kts | 178° |
| 2026-04-30 00:04 | -3.60118 | -48.11843 | 35860 ft | 455 kts | 179° |
| 2026-04-30 00:04 | -3.63274 | -48.11734 | 36114 ft | 454 kts | 179° |
| 2026-04-30 00:05 | -3.66432 | -48.11624 | 36359 ft | 454 kts | 179° |
| 2026-04-30 00:05 | -3.69584 | -48.11509 | 36594 ft | 453 kts | 179° |
| 2026-04-30 00:05 | -3.72734 | -48.11389 | 36830 ft | 453 kts | 179° |
| 2026-04-30 00:06 | -3.79034 | -48.11138 | 36884 ft | 452 kts | 179° |
| 2026-04-30 00:06 | -3.85317 | -48.10881 | 36884 ft | 452 kts | 179° |
| 2026-04-30 00:07 | -3.91598 | -48.10625 | 36887 ft | 452 kts | 179° |
| 2026-04-30 00:07 | -3.97880 | -48.10369 | 36892 ft | 452 kts | 179° |
| 2026-04-30 00:08 | -4.04159 | -48.10113 | 36893 ft | 451 kts | 179° |
| 2026-04-30 00:08 | -4.10435 | -48.09858 | 36892 ft | 451 kts | 179° |
| 2026-04-30 00:09 | -4.16710 | -48.09602 | 36893 ft | 451 kts | 179° |
| 2026-04-30 00:09 | -4.22983 | -48.09347 | 36895 ft | 451 kts | 179° |
| 2026-04-30 00:10 | -4.29257 | -48.09091 | 36894 ft | 451 kts | 179° |
| 2026-04-30 00:10 | -4.35536 | -48.08836 | 36895 ft | 452 kts | 179° |
| 2026-04-30 00:11 | -4.41822 | -48.08580 | 36894 ft | 452 kts | 179° |
| 2026-04-30 00:11 | -4.48106 | -48.08324 | 36900 ft | 452 kts | 179° |
| 2026-04-30 00:12 | -4.54348 | -48.08069 | 36897 ft | 452 kts | 179° |
| 2026-04-30 00:12 | -4.60641 | -48.07813 | 36897 ft | 453 kts | 179° |
| 2026-04-30 00:13 | -4.66945 | -48.07556 | 36901 ft | 453 kts | 179° |
| 2026-04-30 00:13 | -4.73247 | -48.07300 | 36900 ft | 453 kts | 179° |
| 2026-04-30 00:14 | -4.79554 | -48.07041 | 36902 ft | 453 kts | 178° |
| 2026-04-30 00:14 | -4.85857 | -48.06783 | 36904 ft | 454 kts | 178° |
| 2026-04-30 00:15 | -4.92172 | -48.06523 | 36900 ft | 454 kts | 178° |
| 2026-04-30 00:15 | -4.98489 | -48.06264 | 36900 ft | 455 kts | 178° |
| 2026-04-30 00:16 | -5.04813 | -48.06004 | 36896 ft | 455 kts | 178° |
| 2026-04-30 00:16 | -5.11133 | -48.05745 | 36890 ft | 454 kts | 178° |
| 2026-04-30 00:17 | -5.17452 | -48.05485 | 36895 ft | 455 kts | 178° |
| 2026-04-30 00:17 | -5.23774 | -48.05226 | 36889 ft | 455 kts | 178° |
| 2026-04-30 00:18 | -5.30098 | -48.04966 | 36889 ft | 455 kts | 178° |
| 2026-04-30 00:18 | -5.36425 | -48.04706 | 36889 ft | 455 kts | 178° |
| 2026-04-30 00:19 | -5.42747 | -48.04446 | 36889 ft | 455 kts | 178° |
| 2026-04-30 00:19 | -5.49065 | -48.04187 | 36889 ft | 455 kts | 178° |
| 2026-04-30 00:20 | -5.55390 | -48.03928 | 36892 ft | 454 kts | 178° |
| 2026-04-30 00:20 | -5.61708 | -48.03669 | 36892 ft | 455 kts | 178° |
| 2026-04-30 00:21 | -5.68028 | -48.03410 | 36891 ft | 455 kts | 178° |
| 2026-04-30 00:21 | -5.74343 | -48.03151 | 36892 ft | 454 kts | 178° |
| 2026-04-30 00:22 | -5.80609 | -48.02893 | 36889 ft | 453 kts | 178° |
| 2026-04-30 00:22 | -5.86913 | -48.02634 | 36889 ft | 453 kts | 178° |
| 2026-04-30 00:23 | -5.93216 | -48.02376 | 36888 ft | 453 kts | 178° |
| 2026-04-30 00:23 | -5.99520 | -48.02117 | 36889 ft | 453 kts | 178° |
| 2026-04-30 00:24 | -6.05822 | -48.01858 | 36892 ft | 453 kts | 178° |
| 2026-04-30 00:24 | -6.12127 | -48.01599 | 36892 ft | 453 kts | 178° |
| 2026-04-30 00:25 | -6.18429 | -48.01340 | 36891 ft | 453 kts | 178° |
| 2026-04-30 00:25 | -6.24737 | -48.01081 | 36889 ft | 453 kts | 177° |
| 2026-04-30 00:26 | -6.31029 | -48.00822 | 36890 ft | 452 kts | 177° |
| 2026-04-30 00:26 | -6.37314 | -48.00564 | 36896 ft | 452 kts | 177° |
| 2026-04-30 00:27 | -6.43606 | -48.00305 | 36893 ft | 452 kts | 177° |
| 2026-04-30 00:27 | -6.49891 | -48.00046 | 36895 ft | 452 kts | 177° |
| 2026-04-30 00:28 | -6.56180 | -47.99788 | 36894 ft | 451 kts | 177° |
| 2026-04-30 00:28 | -6.62453 | -47.99529 | 36895 ft | 451 kts | 177° |
| 2026-04-30 00:29 | -6.68724 | -47.99271 | 36897 ft | 451 kts | 177° |
| 2026-04-30 00:29 | -6.74995 | -47.99013 | 36897 ft | 451 kts | 177° |
| 2026-04-30 00:30 | -6.81264 | -47.98755 | 36897 ft | 451 kts | 176° |
| 2026-04-30 00:30 | -6.87524 | -47.98497 | 36897 ft | 450 kts | 176° |
| 2026-04-30 00:31 | -6.93745 | -47.98240 | 36896 ft | 450 kts | 176° |
| 2026-04-30 00:31 | -6.99998 | -47.97982 | 36895 ft | 450 kts | 176° |
| 2026-04-30 00:32 | -7.06260 | -47.97724 | 36895 ft | 450 kts | 176° |
| 2026-04-30 00:32 | -7.12518 | -47.97466 | 36898 ft | 450 kts | 176° |
| 2026-04-30 00:33 | -7.18770 | -47.97208 | 36897 ft | 450 kts | 176° |
| 2026-04-30 00:33 | -7.25032 | -47.96949 | 36892 ft | 450 kts | 176° |
| 2026-04-30 00:34 | -7.31287 | -47.96691 | 36894 ft | 450 kts | 176° |
| 2026-04-30 00:34 | -7.37549 | -47.96433 | 36892 ft | 451 kts | 176° |
| 2026-04-30 00:35 | -7.43821 | -47.96173 | 36892 ft | 451 kts | 176° |
| 2026-04-30 00:35 | -7.50094 | -47.95914 | 36892 ft | 451 kts | 176° |
| 2026-04-30 00:36 | -7.56369 | -47.95655 | 36889 ft | 451 kts | 176° |
| 2026-04-30 00:36 | -7.62638 | -47.95396 | 36887 ft | 451 kts | 177° |
| 2026-04-30 00:37 | -7.68911 | -47.95136 | 36889 ft | 451 kts | 177° |
| 2026-04-30 00:37 | -7.75181 | -47.94877 | 36890 ft | 451 kts | 177° |
| 2026-04-30 00:38 | -7.81454 | -47.94618 | 36892 ft | 451 kts | 177° |
| 2026-04-30 00:38 | -7.87684 | -47.94362 | 36891 ft | 451 kts | 177° |
| 2026-04-30 00:39 | -7.93949 | -47.94105 | 36892 ft | 451 kts | 177° |
| 2026-04-30 00:39 | -8.00213 | -47.93848 | 36889 ft | 450 kts | 177° |
| 2026-04-30 00:40 | -8.06471 | -47.93591 | 36892 ft | 450 kts | 177° |
| 2026-04-30 00:40 | -8.12731 | -47.93333 | 36892 ft | 450 kts | 177° |
| 2026-04-30 00:41 | -8.18993 | -47.93076 | 36891 ft | 450 kts | 177° |
| 2026-04-30 00:41 | -8.25238 | -47.92819 | 36895 ft | 449 kts | 177° |
| 2026-04-30 00:42 | -8.31474 | -47.92563 | 36891 ft | 448 kts | 177° |
| 2026-04-30 00:42 | -8.37717 | -47.92305 | 36897 ft | 449 kts | 177° |
| 2026-04-30 00:43 | -8.43953 | -47.92045 | 36897 ft | 449 kts | 177° |
| 2026-04-30 00:43 | -8.50188 | -47.91785 | 36897 ft | 448 kts | 177° |
| 2026-04-30 00:44 | -8.56402 | -47.91526 | 36897 ft | 447 kts | 177° |
| 2026-04-30 00:44 | -8.62618 | -47.91267 | 36897 ft | 447 kts | 177° |
| 2026-04-30 00:45 | -8.68834 | -47.91008 | 36898 ft | 447 kts | 177° |
| 2026-04-30 00:45 | -8.75051 | -47.90749 | 36897 ft | 447 kts | 177° |
| 2026-04-30 00:46 | -8.81265 | -47.90490 | 36900 ft | 447 kts | 177° |
| 2026-04-30 00:46 | -8.87480 | -47.90230 | 36900 ft | 447 kts | 177° |
| 2026-04-30 00:47 | -8.93653 | -47.89973 | 36900 ft | 447 kts | 177° |
| 2026-04-30 00:47 | -8.99867 | -47.89713 | 36898 ft | 447 kts | 177° |
| 2026-04-30 00:48 | -9.06081 | -47.89454 | 36902 ft | 447 kts | 177° |
| 2026-04-30 00:48 | -9.12294 | -47.89194 | 36903 ft | 447 kts | 177° |
| 2026-04-30 00:49 | -9.18511 | -47.88934 | 36903 ft | 447 kts | 177° |
| 2026-04-30 00:49 | -9.24727 | -47.88674 | 36905 ft | 447 kts | 177° |
| 2026-04-30 00:50 | -9.30940 | -47.88415 | 36903 ft | 447 kts | 176° |
| 2026-04-30 00:50 | -9.37145 | -47.88155 | 36903 ft | 446 kts | 176° |
| 2026-04-30 00:51 | -9.43343 | -47.87896 | 36907 ft | 446 kts | 176° |
| 2026-04-30 00:51 | -9.49548 | -47.87636 | 36905 ft | 446 kts | 176° |
| 2026-04-30 00:52 | -9.55747 | -47.87376 | 36904 ft | 446 kts | 176° |
| 2026-04-30 00:52 | -9.61944 | -47.87117 | 36905 ft | 445 kts | 176° |
| 2026-04-30 00:53 | -9.68091 | -47.86859 | 36907 ft | 445 kts | 176° |
| 2026-04-30 00:53 | -9.74283 | -47.86599 | 36906 ft | 445 kts | 176° |
| 2026-04-30 00:54 | -9.80467 | -47.86340 | 36909 ft | 445 kts | 176° |
| 2026-04-30 00:54 | -9.86658 | -47.86078 | 36907 ft | 445 kts | 176° |
| 2026-04-30 00:55 | -9.92847 | -47.85793 | 36914 ft | 445 kts | 176° |
| 2026-04-30 00:55 | -10.02123 | -47.85353 | 36916 ft | 445 kts | 176° |
| 2026-04-30 00:56 | -10.08305 | -47.85061 | 36916 ft | 445 kts | 176° |
| 2026-04-30 00:56 | -10.14489 | -47.84770 | 36920 ft | 445 kts | 176° |
| 2026-04-30 00:57 | -10.19629 | -47.84529 | 36916 ft | 445 kts | 176° |
| 2026-04-30 00:57 | -10.25810 | -47.84239 | 36921 ft | 445 kts | 176° |
| 2026-04-30 00:58 | -10.31997 | -47.83948 | 36921 ft | 445 kts | 176° |
| 2026-04-30 00:58 | -10.38180 | -47.83657 | 36921 ft | 445 kts | 176° |
| 2026-04-30 00:59 | -10.44355 | -47.83367 | 36921 ft | 444 kts | 176° |
| 2026-04-30 00:59 | -10.50526 | -47.83076 | 36921 ft | 444 kts | 176° |
| 2026-04-30 01:00 | -10.56695 | -47.82786 | 36925 ft | 444 kts | 176° |
| 2026-04-30 01:00 | -10.62864 | -47.82496 | 36925 ft | 444 kts | 176° |
| 2026-04-30 01:01 | -10.69030 | -47.82205 | 36925 ft | 443 kts | 176° |
| 2026-04-30 01:01 | -10.75192 | -47.81914 | 36924 ft | 443 kts | 176° |
| 2026-04-30 01:02 | -10.81356 | -47.81624 | 36924 ft | 443 kts | 176° |
| 2026-04-30 01:02 | -10.87517 | -47.81333 | 36924 ft | 443 kts | 176° |
| 2026-04-30 01:03 | -10.93680 | -47.81042 | 36924 ft | 443 kts | 176° |
| 2026-04-30 01:03 | -10.99795 | -47.80753 | 36921 ft | 443 kts | 176° |
| 2026-04-30 01:04 | -11.05985 | -47.80461 | 36923 ft | 443 kts | 176° |
| 2026-04-30 01:04 | -11.12141 | -47.80170 | 36925 ft | 443 kts | 176° |
| 2026-04-30 01:05 | -11.18292 | -47.79879 | 36927 ft | 443 kts | 176° |
| 2026-04-30 01:05 | -11.24441 | -47.79588 | 36925 ft | 442 kts | 176° |
| 2026-04-30 01:06 | -11.30590 | -47.79297 | 36925 ft | 442 kts | 176° |
| 2026-04-30 01:06 | -11.36688 | -47.79009 | 36925 ft | 442 kts | 176° |
| 2026-04-30 01:07 | -11.42831 | -47.78718 | 36926 ft | 442 kts | 176° |
| 2026-04-30 01:07 | -11.48976 | -47.78427 | 36925 ft | 442 kts | 176° |
| 2026-04-30 01:08 | -11.55117 | -47.78136 | 36923 ft | 442 kts | 176° |
| 2026-04-30 01:08 | -11.61261 | -47.77873 | 36923 ft | 442 kts | 177° |
| 2026-04-30 01:09 | -11.67410 | -47.77691 | 36925 ft | 442 kts | 178° |
| 2026-04-30 01:09 | -11.73561 | -47.77525 | 36923 ft | 442 kts | 178° |
| 2026-04-30 01:10 | -11.79705 | -47.77353 | 36922 ft | 442 kts | 178° |
| 2026-04-30 01:10 | -11.85846 | -47.77175 | 36922 ft | 441 kts | 178° |
| 2026-04-30 01:11 | -11.91985 | -47.76996 | 36924 ft | 442 kts | 178° |
| 2026-04-30 01:11 | -11.98130 | -47.76816 | 36927 ft | 442 kts | 178° |
| 2026-04-30 01:12 | -12.04268 | -47.76636 | 36930 ft | 441 kts | 178° |
| 2026-04-30 01:12 | -12.10403 | -47.76456 | 36930 ft | 441 kts | 178° |
| 2026-04-30 01:13 | -12.16532 | -47.76277 | 36930 ft | 441 kts | 178° |
| 2026-04-30 01:13 | -12.22665 | -47.76097 | 36930 ft | 441 kts | 178° |
| 2026-04-30 01:14 | -12.28798 | -47.75886 | 36935 ft | 440 kts | 177° |
| 2026-04-30 01:14 | -12.34919 | -47.75624 | 36936 ft | 440 kts | 177° |
| 2026-04-30 01:15 | -12.41030 | -47.75356 | 36933 ft | 440 kts | 177° |
| 2026-04-30 01:15 | -12.47141 | -47.75093 | 36933 ft | 440 kts | 177° |
| 2026-04-30 01:16 | -12.53253 | -47.74833 | 36936 ft | 440 kts | 177° |
| 2026-04-30 01:16 | -12.59361 | -47.74575 | 36936 ft | 439 kts | 177° |
| 2026-04-30 01:17 | -12.65429 | -47.74318 | 36933 ft | 439 kts | 177° |
| 2026-04-30 01:17 | -12.71576 | -47.74058 | 36939 ft | 439 kts | 177° |
| 2026-04-30 01:18 | -12.77646 | -47.73800 | 36939 ft | 439 kts | 177° |
| 2026-04-30 01:18 | -12.83753 | -47.73539 | 36945 ft | 440 kts | 177° |
| 2026-04-30 01:19 | -12.89869 | -47.73277 | 36950 ft | 440 kts | 177° |
| 2026-04-30 01:19 | -12.95984 | -47.73015 | 36950 ft | 440 kts | 177° |
| 2026-04-30 01:20 | -13.02097 | -47.72754 | 36961 ft | 440 kts | 177° |
| 2026-04-30 01:20 | -13.08212 | -47.72492 | 36961 ft | 440 kts | 177° |
| 2026-04-30 01:21 | -13.14316 | -47.72230 | 36973 ft | 439 kts | 177° |
| 2026-04-30 01:21 | -13.20409 | -47.71969 | 36971 ft | 438 kts | 177° |
| 2026-04-30 01:22 | -13.26496 | -47.71708 | 36982 ft | 438 kts | 177° |
| 2026-04-30 01:22 | -13.32594 | -47.71447 | 36986 ft | 439 kts | 177° |
| 2026-04-30 01:23 | -13.38692 | -47.71185 | 36990 ft | 439 kts | 177° |
| 2026-04-30 01:23 | -13.44795 | -47.70923 | 36998 ft | 439 kts | 177° |
| 2026-04-30 01:24 | -13.50906 | -47.70660 | 37002 ft | 439 kts | 177° |
| 2026-04-30 01:24 | -13.57013 | -47.70398 | 37003 ft | 439 kts | 177° |
| 2026-04-30 01:25 | -13.63114 | -47.70135 | 37008 ft | 439 kts | 177° |
| 2026-04-30 01:25 | -13.69182 | -47.69874 | 37013 ft | 439 kts | 177° |
| 2026-04-30 01:26 | -13.75283 | -47.69611 | 37018 ft | 439 kts | 177° |
| 2026-04-30 01:26 | -13.81389 | -47.69348 | 37017 ft | 439 kts | 177° |
| 2026-04-30 01:27 | -13.87492 | -47.69085 | 37019 ft | 439 kts | 178° |
| 2026-04-30 01:27 | -13.93579 | -47.68823 | 37017 ft | 437 kts | 178° |
| 2026-04-30 01:28 | -13.99648 | -47.68561 | 37019 ft | 435 kts | 178° |
| 2026-04-30 01:28 | -14.05704 | -47.68300 | 37017 ft | 436 kts | 178° |
| 2026-04-30 01:29 | -14.11778 | -47.68038 | 37030 ft | 437 kts | 178° |
| 2026-04-30 01:29 | -14.17850 | -47.67775 | 37035 ft | 436 kts | 178° |
| 2026-04-30 01:30 | -14.23906 | -47.67513 | 37037 ft | 436 kts | 178° |
| 2026-04-30 01:30 | -14.29970 | -47.67251 | 37040 ft | 437 kts | 178° |
| 2026-04-30 01:31 | -14.36039 | -47.66988 | 37040 ft | 436 kts | 178° |
| 2026-04-30 01:31 | -14.42107 | -47.66725 | 37044 ft | 437 kts | 178° |
| 2026-04-30 01:32 | -14.48199 | -47.66461 | 37048 ft | 439 kts | 178° |
| 2026-04-30 01:32 | -14.54301 | -47.66197 | 37048 ft | 439 kts | 178° |
| 2026-04-30 01:33 | -14.60399 | -47.65932 | 37051 ft | 439 kts | 178° |
| 2026-04-30 01:33 | -14.66498 | -47.65657 | 37048 ft | 439 kts | 177° |
| 2026-04-30 01:34 | -14.72606 | -47.65321 | 37049 ft | 439 kts | 177° |
| 2026-04-30 01:34 | -14.78668 | -47.64969 | 37048 ft | 439 kts | 177° |
| 2026-04-30 01:35 | -14.84769 | -47.64617 | 37050 ft | 439 kts | 177° |
| 2026-04-30 01:35 | -14.90875 | -47.64269 | 37050 ft | 439 kts | 177° |
| 2026-04-30 01:36 | -14.96980 | -47.63923 | 37054 ft | 440 kts | 177° |
| 2026-04-30 01:36 | -15.03091 | -47.63578 | 37054 ft | 440 kts | 177° |
| 2026-04-30 01:37 | -15.09194 | -47.63232 | 37050 ft | 439 kts | 177° |
| 2026-04-30 01:37 | -15.15303 | -47.62886 | 37054 ft | 440 kts | 177° |
| 2026-04-30 01:38 | -15.21415 | -47.62539 | 37060 ft | 440 kts | 178° |
| 2026-04-30 01:38 | -15.27531 | -47.62191 | 37059 ft | 440 kts | 178° |
| 2026-04-30 01:39 | -15.33650 | -47.61844 | 37064 ft | 440 kts | 178° |
| 2026-04-30 01:39 | -15.39767 | -47.61496 | 37065 ft | 440 kts | 178° |
| 2026-04-30 01:40 | -15.45890 | -47.61147 | 37067 ft | 441 kts | 178° |
| 2026-04-30 01:40 | -15.52015 | -47.60799 | 37067 ft | 441 kts | 178° |
| 2026-04-30 01:41 | -15.58145 | -47.60450 | 37068 ft | 441 kts | 178° |
| 2026-04-30 01:41 | -15.64271 | -47.60101 | 37069 ft | 441 kts | 178° |
| 2026-04-30 01:42 | -15.70402 | -47.59751 | 37071 ft | 441 kts | 178° |
| 2026-04-30 01:42 | -15.76497 | -47.59403 | 37070 ft | 442 kts | 178° |
| 2026-04-30 01:43 | -15.82638 | -47.59053 | 37073 ft | 442 kts | 178° |
| 2026-04-30 01:43 | -15.88771 | -47.58702 | 37073 ft | 442 kts | 178° |
| 2026-04-30 01:44 | -15.94912 | -47.58351 | 37072 ft | 442 kts | 178° |
| 2026-04-30 01:44 | -16.01054 | -47.58000 | 37070 ft | 442 kts | 178° |
| 2026-04-30 01:45 | -16.07194 | -47.57648 | 37069 ft | 442 kts | 178° |
| 2026-04-30 01:45 | -16.13340 | -47.57296 | 37070 ft | 442 kts | 178° |
| 2026-04-30 01:46 | -16.19489 | -47.56944 | 37075 ft | 442 kts | 178° |
| 2026-04-30 01:46 | -16.25636 | -47.56591 | 37071 ft | 443 kts | 178° |
| 2026-04-30 01:47 | -16.31790 | -47.56238 | 37071 ft | 443 kts | 178° |
| 2026-04-30 01:47 | -16.36904 | -47.55944 | 37073 ft | 443 kts | 178° |
| 2026-04-30 01:48 | -16.43056 | -47.55591 | 37072 ft | 443 kts | 178° |
| 2026-04-30 01:48 | -16.49208 | -47.55227 | 37075 ft | 443 kts | 178° |
| 2026-04-30 01:49 | -16.55359 | -47.54857 | 37073 ft | 443 kts | 178° |
| 2026-04-30 01:49 | -16.61517 | -47.54485 | 37072 ft | 443 kts | 178° |
| 2026-04-30 01:50 | -16.67660 | -47.53916 | 37079 ft | 444 kts | 174° |
| 2026-04-30 01:50 | -16.73774 | -47.53023 | 37077 ft | 444 kts | 173° |
| 2026-04-30 01:51 | -16.79889 | -47.52067 | 37078 ft | 444 kts | 173° |
| 2026-04-30 01:51 | -16.85997 | -47.51105 | 37079 ft | 444 kts | 173° |
| 2026-04-30 01:52 | -16.92106 | -47.50147 | 37079 ft | 444 kts | 173° |
| 2026-04-30 01:52 | -16.98221 | -47.49193 | 37079 ft | 444 kts | 173° |
| 2026-04-30 01:53 | -17.04295 | -47.48246 | 37075 ft | 444 kts | 173° |
| 2026-04-30 01:53 | -17.10450 | -47.47285 | 37072 ft | 444 kts | 173° |
| 2026-04-30 01:54 | -17.16525 | -47.46336 | 37072 ft | 444 kts | 173° |
| 2026-04-30 01:54 | -17.22642 | -47.45379 | 37073 ft | 445 kts | 174° |
| 2026-04-30 01:55 | -17.28774 | -47.44420 | 37075 ft | 446 kts | 174° |
| 2026-04-30 01:55 | -17.34906 | -47.43460 | 37077 ft | 446 kts | 174° |
| 2026-04-30 01:56 | -17.41040 | -47.42499 | 37078 ft | 446 kts | 174° |
| 2026-04-30 01:56 | -17.47176 | -47.41537 | 37083 ft | 446 kts | 174° |
| 2026-04-30 01:57 | -17.53319 | -47.40573 | 37077 ft | 446 kts | 174° |
| 2026-04-30 01:57 | -17.59465 | -47.39608 | 37078 ft | 447 kts | 174° |
| 2026-04-30 01:58 | -17.65606 | -47.38643 | 37080 ft | 446 kts | 174° |
| 2026-04-30 01:58 | -17.71751 | -47.37677 | 37081 ft | 446 kts | 174° |
| 2026-04-30 01:59 | -17.80966 | -47.36227 | 37080 ft | 447 kts | 174° |
| 2026-04-30 02:00 | -17.87116 | -47.35258 | 37078 ft | 447 kts | 174° |
| 2026-04-30 02:00 | -17.93260 | -47.34290 | 37087 ft | 447 kts | 174° |
| 2026-04-30 02:01 | -17.99410 | -47.33320 | 37081 ft | 448 kts | 174° |
| 2026-04-30 02:01 | -18.05531 | -47.32354 | 37076 ft | 448 kts | 174° |
| 2026-04-30 02:02 | -18.11690 | -47.31382 | 37075 ft | 447 kts | 174° |
| 2026-04-30 02:02 | -18.17850 | -47.30408 | 37078 ft | 447 kts | 174° |
| 2026-04-30 02:03 | -18.24007 | -47.29434 | 37082 ft | 448 kts | 174° |
| 2026-04-30 02:03 | -18.30182 | -47.28457 | 37084 ft | 449 kts | 174° |
| 2026-04-30 02:04 | -18.36353 | -47.27479 | 37086 ft | 448 kts | 174° |
| 2026-04-30 02:04 | -18.42523 | -47.26501 | 37093 ft | 448 kts | 174° |
| 2026-04-30 02:05 | -18.48700 | -47.25522 | 37089 ft | 449 kts | 174° |
| 2026-04-30 02:05 | -18.54884 | -47.24540 | 37091 ft | 449 kts | 174° |
| 2026-04-30 02:06 | -18.61066 | -47.23559 | 37095 ft | 449 kts | 174° |
| 2026-04-30 02:06 | -18.67240 | -47.22577 | 37099 ft | 449 kts | 175° |
| 2026-04-30 02:07 | -18.73431 | -47.21592 | 37100 ft | 450 kts | 175° |
| 2026-04-30 02:07 | -18.79622 | -47.20607 | 37100 ft | 450 kts | 174° |
| 2026-04-30 02:08 | -18.85807 | -47.19621 | 37102 ft | 449 kts | 174° |
| 2026-04-30 02:08 | -18.91992 | -47.18634 | 37095 ft | 450 kts | 175° |
| 2026-04-30 02:09 | -18.98183 | -47.17647 | 37097 ft | 451 kts | 175° |
| 2026-04-30 02:09 | -19.04387 | -47.16655 | 37097 ft | 451 kts | 175° |
| 2026-04-30 02:10 | -19.10589 | -47.15663 | 37097 ft | 451 kts | 175° |
| 2026-04-30 02:10 | -19.16791 | -47.14683 | 37095 ft | 451 kts | 175° |
| 2026-04-30 02:11 | -19.23002 | -47.13788 | 37103 ft | 450 kts | 176° |
| 2026-04-30 02:11 | -19.29214 | -47.12920 | 37110 ft | 450 kts | 176° |
| 2026-04-30 02:12 | -19.35422 | -47.12048 | 37122 ft | 450 kts | 176° |
| 2026-04-30 02:12 | -19.41630 | -47.11168 | 37135 ft | 450 kts | 176° |
| 2026-04-30 02:13 | -19.47847 | -47.10284 | 37143 ft | 451 kts | 176° |
| 2026-04-30 02:13 | -19.54022 | -47.09397 | 37150 ft | 451 kts | 175° |
| 2026-04-30 02:14 | -19.60239 | -47.08496 | 37150 ft | 451 kts | 176° |
| 2026-04-30 02:14 | -19.66455 | -47.07618 | 37147 ft | 451 kts | 176° |
| 2026-04-30 02:15 | -19.72682 | -47.06741 | 37107 ft | 451 kts | 176° |
| 2026-04-30 02:15 | -19.78907 | -47.05843 | 37107 ft | 451 kts | 176° |
| 2026-04-30 02:16 | -19.85128 | -47.04938 | 37113 ft | 451 kts | 176° |
| 2026-04-30 02:16 | -19.91355 | -47.04040 | 37113 ft | 451 kts | 176° |
| 2026-04-30 02:17 | -19.97578 | -47.03162 | 37111 ft | 451 kts | 176° |
| 2026-04-30 02:17 | -20.03807 | -47.02288 | 37109 ft | 452 kts | 176° |
| 2026-04-30 02:18 | -20.10036 | -47.01401 | 37108 ft | 452 kts | 177° |
| 2026-04-30 02:18 | -20.16266 | -47.00508 | 37095 ft | 452 kts | 176° |
| 2026-04-30 02:19 | -20.22496 | -46.99614 | 37099 ft | 452 kts | 176° |
| 2026-04-30 02:19 | -20.28727 | -46.98719 | 37093 ft | 452 kts | 176° |
| 2026-04-30 02:20 | -20.34958 | -46.97822 | 37087 ft | 452 kts | 177° |
| 2026-04-30 02:20 | -20.41146 | -46.96931 | 37089 ft | 451 kts | 176° |
| 2026-04-30 02:21 | -20.47370 | -46.96034 | 37087 ft | 452 kts | 176° |
| 2026-04-30 02:21 | -20.53602 | -46.95136 | 37080 ft | 452 kts | 176° |
| 2026-04-30 02:22 | -20.59835 | -46.94236 | 37082 ft | 451 kts | 177° |
| 2026-04-30 02:22 | -20.66058 | -46.93337 | 37087 ft | 451 kts | 177° |
| 2026-04-30 02:23 | -20.72278 | -46.92438 | 37077 ft | 451 kts | 177° |
| 2026-04-30 02:23 | -20.78501 | -46.91535 | 37092 ft | 451 kts | 176° |
| 2026-04-30 02:24 | -20.84721 | -46.90571 | 37087 ft | 452 kts | 176° |
| 2026-04-30 02:24 | -20.90936 | -46.89598 | 37088 ft | 452 kts | 176° |
| 2026-04-30 02:25 | -20.97152 | -46.88626 | 37080 ft | 451 kts | 176° |
| 2026-04-30 02:25 | -21.03370 | -46.87654 | 37093 ft | 451 kts | 177° |
| 2026-04-30 02:26 | -21.09587 | -46.86681 | 37086 ft | 451 kts | 177° |
| 2026-04-30 02:26 | -21.15806 | -46.85707 | 37084 ft | 452 kts | 177° |
| 2026-04-30 02:27 | -21.22023 | -46.84733 | 37082 ft | 452 kts | 177° |
| 2026-04-30 02:27 | -21.28241 | -46.83757 | 37085 ft | 451 kts | 177° |
| 2026-04-30 02:28 | -21.34416 | -46.82787 | 37081 ft | 451 kts | 177° |
| 2026-04-30 02:28 | -21.40631 | -46.81811 | 37077 ft | 452 kts | 177° |
| 2026-04-30 02:29 | -21.46850 | -46.80833 | 37051 ft | 452 kts | 177° |
| 2026-04-30 02:29 | -21.49961 | -46.80344 | 36457 ft | 453 kts | 177° |
| 2026-04-30 02:29 | -21.53092 | -46.79852 | 35729 ft | 457 kts | 177° |
| 2026-04-30 02:29 | -21.56263 | -46.79355 | 34919 ft | 463 kts | 177° |
| 2026-04-30 02:30 | -21.59471 | -46.78850 | 34142 ft | 469 kts | 176° |
| 2026-04-30 02:30 | -21.62716 | -46.78339 | 33241 ft | 474 kts | 176° |
| 2026-04-30 02:30 | -21.65986 | -46.77823 | 32500 ft | 472 kts | 176° |
| 2026-04-30 02:30 | -21.69215 | -46.77310 | 31958 ft | 468 kts | 176° |
| 2026-04-30 02:31 | -21.72429 | -46.76801 | 31371 ft | 467 kts | 176° |
| 2026-04-30 02:31 | -21.75646 | -46.76293 | 30748 ft | 467 kts | 176° |
| 2026-04-30 02:31 | -21.78859 | -46.75785 | 30120 ft | 467 kts | 175° |
| 2026-04-30 02:31 | -21.82074 | -46.75277 | 29404 ft | 467 kts | 175° |
| 2026-04-30 02:32 | -21.85287 | -46.74769 | 28767 ft | 466 kts | 175° |
| 2026-04-30 02:32 | -21.88479 | -46.74263 | 28218 ft | 463 kts | 175° |
| 2026-04-30 02:32 | -21.91652 | -46.73760 | 27637 ft | 460 kts | 175° |
| 2026-04-30 02:32 | -21.94785 | -46.73262 | 26986 ft | 452 kts | 175° |
| 2026-04-30 02:33 | -21.97890 | -46.72770 | 26241 ft | 451 kts | 175° |
| 2026-04-30 02:33 | -22.00992 | -46.72279 | 25707 ft | 448 kts | 175° |
| 2026-04-30 02:33 | -22.04074 | -46.71784 | 25177 ft | 446 kts | 174° |
| 2026-04-30 02:33 | -22.07129 | -46.71287 | 24710 ft | 442 kts | 174° |
| 2026-04-30 02:34 | -22.10166 | -46.70797 | 24177 ft | 441 kts | 174° |
| 2026-04-30 02:34 | -22.13196 | -46.70311 | 23686 ft | 438 kts | 174° |
| 2026-04-30 02:34 | -22.16199 | -46.69831 | 23203 ft | 433 kts | 174° |
| 2026-04-30 02:34 | -22.19158 | -46.69358 | 22573 ft | 426 kts | 175° |
| 2026-04-30 02:35 | -22.22067 | -46.68893 | 21880 ft | 418 kts | 175° |
| 2026-04-30 02:35 | -22.24921 | -46.68439 | 21144 ft | 412 kts | 175° |
| 2026-04-30 02:35 | -22.27729 | -46.67992 | 20510 ft | 403 kts | 175° |
| 2026-04-30 02:35 | -22.30486 | -46.67553 | 19764 ft | 398 kts | 174° |
| 2026-04-30 02:36 | -22.33206 | -46.67120 | 19086 ft | 392 kts | 174° |
| 2026-04-30 02:36 | -22.35883 | -46.66693 | 18429 ft | 385 kts | 174° |
| 2026-04-30 02:36 | -22.38521 | -46.66347 | 17631 ft | 377 kts | 181° |
| 2026-04-30 02:36 | -22.41063 | -46.66716 | 16844 ft | 364 kts | 201° |
| 2026-04-30 02:37 | -22.43209 | -46.68043 | 16079 ft | 351 kts | 224° |
| 2026-04-30 02:37 | -22.44817 | -46.69966 | 15499 ft | 340 kts | 233° |
| 2026-04-30 02:37 | -22.46237 | -46.71960 | 14981 ft | 330 kts | 234° |
| 2026-04-30 02:37 | -22.47600 | -46.73917 | 14466 ft | 322 kts | 234° |
| 2026-04-30 02:38 | -22.48933 | -46.75830 | 13963 ft | 315 kts | 233° |
| 2026-04-30 02:38 | -22.50247 | -46.77705 | 13437 ft | 311 kts | 233° |
| 2026-04-30 02:38 | -22.51554 | -46.79563 | 12944 ft | 311 kts | 233° |
| 2026-04-30 02:38 | -22.52422 | -46.80795 | 12621 ft | 312 kts | 233° |
| 2026-04-30 02:39 | -22.53742 | -46.82667 | 12123 ft | 313 kts | 233° |
| 2026-04-30 02:39 | -22.55061 | -46.84541 | 11624 ft | 313 kts | 233° |
| 2026-04-30 02:39 | -22.56375 | -46.86410 | 11142 ft | 312 kts | 234° |
| 2026-04-30 02:39 | -22.57682 | -46.88277 | 10810 ft | 306 kts | 234° |
| 2026-04-30 02:40 | -22.58945 | -46.90079 | 10615 ft | 297 kts | 234° |
| 2026-04-30 02:40 | -22.60186 | -46.91847 | 10330 ft | 294 kts | 234° |
| 2026-04-30 02:40 | -22.61427 | -46.93612 | 10035 ft | 299 kts | 234° |
| 2026-04-30 02:40 | -22.62688 | -46.95402 | 9788 ft | 297 kts | 234° |
| 2026-04-30 02:41 | -22.63933 | -46.97168 | 9534 ft | 293 kts | 234° |
| 2026-04-30 02:41 | -22.65146 | -46.98892 | 9273 ft | 281 kts | 234° |
| 2026-04-30 02:41 | -22.66300 | -47.00530 | 9029 ft | 267 kts | 234° |
| 2026-04-30 02:41 | -22.67398 | -47.02092 | 8787 ft | 255 kts | 234° |
| 2026-04-30 02:42 | -22.68435 | -47.03566 | 8688 ft | 235 kts | 234° |
| 2026-04-30 02:42 | -22.69388 | -47.04921 | 8494 ft | 218 kts | 234° |
| 2026-04-30 02:42 | -22.70277 | -47.06186 | 8264 ft | 205 kts | 234° |
| 2026-04-30 02:42 | -22.71117 | -47.07383 | 8025 ft | 194 kts | 235° |
| 2026-04-30 02:43 | -22.71912 | -47.08517 | 7791 ft | 184 kts | 235° |
| 2026-04-30 02:43 | -22.72667 | -47.09593 | 7571 ft | 176 kts | 235° |
| 2026-04-30 02:43 | -22.73386 | -47.10620 | 7343 ft | 171 kts | 235° |
| 2026-04-30 02:43 | -22.74098 | -47.11637 | 7106 ft | 168 kts | 236° |
| 2026-04-30 02:44 | -22.74789 | -47.12622 | 6933 ft | 161 kts | 236° |
| 2026-04-30 02:44 | -22.75463 | -47.13585 | 6820 ft | 160 kts | 236° |
| 2026-04-30 02:44 | -22.76137 | -47.14547 | 6710 ft | 160 kts | 236° |
| 2026-04-30 02:44 | -22.76810 | -47.15510 | 6597 ft | 160 kts | 236° |
| 2026-04-30 02:45 | -22.77484 | -47.16472 | 6479 ft | 160 kts | 236° |
| 2026-04-30 02:45 | -22.78159 | -47.17436 | 6358 ft | 160 kts | 236° |
| 2026-04-30 02:45 | -22.78831 | -47.18396 | 6242 ft | 160 kts | 236° |
| 2026-04-30 02:45 | -22.79501 | -47.19352 | 6119 ft | 159 kts | 236° |
| 2026-04-30 02:46 | -22.80165 | -47.20301 | 5999 ft | 156 kts | 236° |
| 2026-04-30 02:46 | -22.80815 | -47.21229 | 5978 ft | 154 kts | 236° |
| 2026-04-30 02:46 | -22.81505 | -47.22121 | 5917 ft | 159 kts | 228° |
| 2026-04-30 02:46 | -22.82355 | -47.22933 | 5609 ft | 162 kts | 221° |
| 2026-04-30 02:47 | -22.83239 | -47.23674 | 5359 ft | 160 kts | 220° |
| 2026-04-30 02:47 | -22.84118 | -47.24400 | 5120 ft | 158 kts | 220° |
| 2026-04-30 02:47 | -22.84986 | -47.25110 | 4873 ft | 155 kts | 218° |
| 2026-04-30 02:47 | -22.85898 | -47.25735 | 4597 ft | 155 kts | 208° |
| 2026-04-30 02:48 | -22.86895 | -47.26187 | 4311 ft | 155 kts | 197° |
| 2026-04-30 02:48 | -22.87948 | -47.26431 | 4036 ft | 154 kts | 186° |
| 2026-04-30 02:48 | -22.89010 | -47.26454 | 3771 ft | 151 kts | 174° |
| 2026-04-30 02:48 | -22.90037 | -47.26267 | 3763 ft | 149 kts | 164° |
| 2026-04-30 02:49 | -22.91010 | -47.25890 | 3792 ft | 147 kts | 153° |
| 2026-04-30 02:49 | -22.91894 | -47.25345 | 3812 ft | 147 kts | 144° |
| 2026-04-30 02:49 | -22.92676 | -47.24634 | 3796 ft | 147 kts | 132° |
| 2026-04-30 02:49 | -22.93338 | -47.23788 | 3796 ft | 147 kts | 126° |
| 2026-04-30 02:50 | -22.93969 | -47.22914 | 3797 ft | 147 kts | 126° |
| 2026-04-30 02:50 | -22.94595 | -47.22032 | 3797 ft | 148 kts | 126° |
| 2026-04-30 02:50 | -22.95227 | -47.21154 | 3662 ft | 147 kts | 126° |
| 2026-04-30 02:50 | -22.95854 | -47.20284 | 3469 ft | 145 kts | 126° |
| 2026-04-30 02:51 | -22.96470 | -47.19420 | 3284 ft | 144 kts | 125° |
| 2026-04-30 02:51 | -22.97081 | -47.18564 | 3094 ft | 142 kts | 125° |
| 2026-04-30 02:51 | -22.97682 | -47.17723 | 2914 ft | 140 kts | 128° |
| 2026-04-30 02:51 | -22.98265 | -47.16907 | 2718 ft | 134 kts | 128° |
| 2026-04-30 02:52 | -22.98833 | -47.16110 | 2531 ft | 133 kts | 129° |
| 2026-04-30 02:52 | -22.99398 | -47.15320 | 2342 ft | 132 kts | 129° |
| 2026-04-30 02:52 | -22.99951 | -47.14540 | 2170 ft | 131 kts | 127° |
| 2026-04-30 02:52 | -23.00473 | -47.13824 | 2156 ft | 105 kts | 127° |
| 2026-04-30 02:53 | -23.00792 | -47.13389 | 2160 ft | 62 kts | 129° |
| 2026-04-30 02:53 | -23.01045 | -47.13037 | 2160 ft | 57 kts | 128° |
| 2026-04-30 02:53 | -23.01248 | -47.12845 | 2164 ft | 31 kts | 153° |
| 2026-04-30 02:53 | -23.01388 | -47.12839 | 2162 ft | 14 kts | 256° |
| 2026-04-30 02:54 | -23.01342 | -47.12925 | 2169 ft | 9 kts | 308° |
| 2026-04-30 02:54 | -23.01302 | -47.12983 | 2165 ft | 10 kts | 307° |
| 2026-04-30 02:54 | -23.01258 | -47.13045 | 2160 ft | 11 kts | 307° |
| 2026-04-30 02:54 | -23.01200 | -47.13128 | 2166 ft | 21 kts | 307° |
| 2026-04-30 02:55 | -23.01106 | -47.13257 | 2162 ft | 22 kts | 300° |
| 2026-04-30 02:55 | -23.01022 | -47.13384 | 2162 ft | 20 kts | 299° |
| 2026-04-30 02:55 | -23.00960 | -47.13482 | 2156 ft | 14 kts | 316° |
| 2026-04-30 02:55 | -23.00895 | -47.13560 | 2153 ft | 14 kts | 311° |
| 2026-04-30 02:56 | -23.00830 | -47.13641 | 2159 ft | 14 kts | 311° |
| 2026-04-30 02:56 | -23.00775 | -47.13731 | 2153 ft | 14 kts | 308° |
| 2026-04-30 02:56 | -23.00727 | -47.13820 | 2157 ft | 14 kts | 288° |
| 2026-04-30 02:56 | -23.00687 | -47.13871 | 2156 ft | 8 kts | 319° |
| 2026-04-30 02:57 | -23.00644 | -47.13915 | 2155 ft | 9 kts | 316° |
| 2026-04-30 02:57 | -23.00564 | -47.14018 | 2157 ft | 22 kts | 308° |
| 2026-04-30 02:57 | -23.00468 | -47.14151 | 2154 ft | 23 kts | 308° |
| 2026-04-30 02:57 | -23.00370 | -47.14286 | 2151 ft | 23 kts | 308° |
| 2026-04-30 02:58 | -23.00271 | -47.14426 | 2150 ft | 24 kts | 307° |
| 2026-04-30 02:58 | -23.00200 | -47.14544 | 2151 ft | 12 kts | 261° |
| 2026-04-30 02:58 | -23.00246 | -47.14608 | 2150 ft | 9 kts | 217° |
| 2026-04-30 02:58 | -23.00297 | -47.14652 | 2148 ft | 10 kts | 219° |
| 2026-04-30 02:59 | -23.00351 | -47.14700 | 2150 ft | 10 kts | 221° |
| 2026-04-30 02:59 | -23.00412 | -47.14734 | 2150 ft | 9 kts | 171° |
| 2026-04-30 02:59 | -23.00453 | -47.14730 | 2151 ft | 4 kts | 210° |
| 2026-04-30 02:59 | -23.00470 | -47.14747 | 2148 ft | 1 kts | 220° |
| 2026-04-30 03:00 | -23.00477 | -47.14753 | 2151 ft | 0 kts | 220° |